Terminal Aerodrome Forecast
Issued by NWS

Home | Current Version | Previous Version | Text Only | Print | Product List | Glossary On
Versions: 1 2 3 4 5 6 7 8 9 10 11 12 13 14 15 16 17 18 19
000
FTUS44 KHGX 200520
TAFUTS
TAF
KUTS 200520Z 2006/2106 VRB04KT P6SM SCT050 BKN250
     FM200900 18005KT 6SM BR OVC010
      TEMPO 2010/2014 4SM BR OVC007
     FM201500 20007KT P6SM SCT007 BKN015
     FM201900 18010KT P6SM VCSH SCT025 BKN040
     FM210100 15006KT P6SM FEW250=

USA.gov is the U.S. government's official web portal to all federal, state and local government web resources and services.